createdAt,value
2023-05-22T00:00:18.892Z,65.49
2023-05-22T00:03:07.093Z,65.49
2023-05-22T00:05:39.187Z,65.54
2023-05-22T00:08:12.031Z,65.70
2023-05-22T00:10:40.663Z,65.95
2023-05-22T00:13:09.503Z,65.95
2023-05-22T00:15:37.778Z,66.04
2023-05-22T00:18:06.697Z,66.19
2023-05-22T00:20:39.444Z,66.37
2023-05-22T00:23:12.167Z,66.54
2023-05-22T00:25:41.526Z,66.78
2023-05-22T00:28:09.901Z,66.82
2023-05-22T00:30:38.594Z,67.08
2023-05-22T00:33:07.243Z,67.34
2023-05-22T00:35:35.672Z,67.48
2023-05-22T00:38:05.877Z,67.70
2023-05-22T00:40:34.355Z,67.93
2023-05-22T00:43:08.817Z,67.98
2023-05-22T00:45:38.169Z,68.25
2023-05-22T00:48:08.423Z,68.23
2023-05-22T00:50:36.784Z,68.45
2023-05-22T00:53:05.249Z,68.69
2023-05-22T00:55:33.525Z,68.64
2023-05-22T00:58:03.468Z,68.92
2023-05-22T01:00:34.583Z,68.92
2023-05-22T01:03:05.912Z,68.98
2023-05-22T01:05:35.130Z,69.32
2023-05-22T01:08:04.253Z,69.35
2023-05-22T01:10:33.459Z,69.59
2023-05-22T01:13:25.338Z,69.65
2023-05-22T01:16:25.553Z,70.02
2023-05-22T01:19:02.922Z,70.32
2023-05-22T01:21:39.525Z,70.34
2023-05-22T01:24:18.544Z,70.74
2023-05-22T01:26:55.013Z,70.67
2023-05-22T01:29:37.535Z,71.12
2023-05-22T01:32:06.205Z,71.15
2023-05-22T01:34:36.660Z,71.41
2023-05-22T01:37:05.574Z,71.75
2023-05-22T01:39:34.204Z,71.56
2023-05-22T01:42:02.684Z,71.85
2023-05-22T01:44:30.968Z,71.97
2023-05-22T01:47:03.839Z,72.39
2023-05-22T01:49:33.766Z,72.55
2023-05-22T01:52:19.135Z,72.59
2023-05-22T01:54:58.870Z,72.77
2023-05-22T01:57:31.376Z,73.02
2023-05-22T02:00:10.087Z,73.16
2023-05-22T02:02:50.370Z,73.40
2023-05-22T02:05:22.700Z,73.53
2023-05-22T02:07:51.183Z,73.72
2023-05-22T02:10:21.085Z,73.79
2023-05-22T02:12:49.564Z,74.11
2023-05-22T02:15:18.452Z,74.22
2023-05-22T02:17:49.822Z,74.18
2023-05-22T02:20:18.192Z,74.27
2023-05-22T02:22:47.697Z,74.61
2023-05-22T02:25:17.588Z,74.63
2023-05-22T02:27:48.122Z,74.69
2023-05-22T02:30:16.621Z,75.04
2023-05-22T02:32:46.476Z,75.13
2023-05-22T02:35:15.048Z,75.21
2023-05-22T02:37:43.275Z,75.13
2023-05-22T02:40:12.573Z,75.35
2023-05-22T02:42:40.844Z,75.50
2023-05-22T02:45:10.002Z,75.63
2023-05-22T02:47:38.409Z,75.81
2023-05-22T02:50:08.235Z,76.05
2023-05-22T02:52:37.356Z,76.35
2023-05-22T02:55:06.211Z,76.34
2023-05-22T02:57:34.482Z,76.19
2023-05-22T03:00:03.976Z,76.19
2023-05-22T03:02:36.968Z,76.70
2023-05-22T03:05:06.475Z,76.85
2023-05-22T03:07:35.217Z,76.87
2023-05-22T03:10:03.852Z,77.06
2023-05-22T03:12:32.322Z,77.11
2023-05-22T03:15:01.733Z,77.45
2023-05-22T03:17:31.238Z,77.73
2023-05-22T03:19:59.422Z,77.81
2023-05-22T03:22:27.777Z,77.82
2023-05-22T03:24:56.153Z,78.10
2023-05-22T03:27:24.427Z,78.19
2023-05-22T03:29:52.922Z,78.44
2023-05-22T03:32:22.543Z,78.88
2023-05-22T03:34:51.198Z,78.84
2023-05-22T03:37:19.472Z,78.80
2023-05-22T03:39:47.852Z,78.98
2023-05-22T03:42:26.786Z,79.17
2023-05-22T03:44:54.946Z,79.34
2023-05-22T03:47:23.500Z,79.33
2023-05-22T03:49:52.122Z,79.46
2023-05-22T03:52:20.470Z,79.78
2023-05-22T03:54:48.762Z,80.03
2023-05-22T03:57:20.210Z,80.11
2023-05-22T03:59:48.485Z,80.22
2023-05-22T04:02:17.952Z,80.44
2023-05-22T04:04:46.752Z,80.55
2023-05-22T04:07:15.252Z,80.60
2023-05-22T04:09:43.427Z,80.69
2023-05-22T04:12:11.598Z,80.96
2023-05-22T04:14:39.871Z,81.05
2023-05-22T04:17:09.067Z,81.23
2023-05-22T04:19:37.443Z,81.35
2023-05-22T04:22:06.026Z,81.39
2023-05-22T04:24:34.309Z,81.60
2023-05-22T04:27:02.787Z,81.56
2023-05-22T04:29:31.266Z,81.62
2023-05-22T04:32:00.464Z,81.62
2023-05-22T04:34:30.596Z,81.67
2023-05-22T04:37:00.382Z,81.74
2023-05-22T04:39:28.557Z,81.91
2023-05-22T04:42:05.894Z,81.82
2023-05-22T04:44:37.190Z,81.71
2023-05-22T04:47:07.783Z,81.44
2023-05-22T04:49:36.607Z,81.30
2023-05-22T04:52:08.525Z,81.38
2023-05-22T04:54:36.869Z,81.20
2023-05-22T04:57:05.734Z,81.13
2023-05-22T04:59:38.204Z,81.20
2023-05-22T05:02:06.586Z,80.96
2023-05-22T05:04:34.902Z,81.13
2023-05-22T05:07:05.202Z,80.90
2023-05-22T05:09:33.975Z,80.58
2023-05-22T05:12:03.672Z,80.16
2023-05-22T05:14:31.947Z,79.78
2023-05-22T05:17:00.363Z,79.38
2023-05-22T05:19:28.891Z,79.07
2023-05-22T05:21:57.180Z,78.86
2023-05-22T05:24:26.481Z,78.51
2023-05-22T05:26:55.264Z,78.12
2023-05-22T05:29:23.545Z,77.76
2023-05-22T05:32:00.106Z,77.59
2023-05-22T05:34:40.981Z,77.13
2023-05-22T05:37:21.645Z,76.96
2023-05-22T05:39:50.792Z,76.72
2023-05-22T05:42:19.118Z,76.57
2023-05-22T05:44:48.828Z,76.43
2023-05-22T05:47:18.030Z,76.20
2023-05-22T05:49:46.296Z,75.87
2023-05-22T05:52:16.418Z,75.28
2023-05-22T05:54:47.605Z,74.68
2023-05-22T05:57:19.781Z,74.27
2023-05-22T05:59:48.764Z,74.20
2023-05-22T06:02:40.504Z,73.36
2023-05-22T06:05:17.880Z,72.91
2023-05-22T06:07:46.522Z,72.40
2023-05-22T06:10:14.715Z,71.60
2023-05-22T06:12:56.784Z,71.17
2023-05-22T06:15:25.167Z,70.86
2023-05-22T06:17:53.894Z,70.13
2023-05-22T06:20:22.655Z,69.62
2023-05-22T06:22:52.142Z,69.46
2023-05-22T06:25:20.726Z,68.94
2023-05-22T06:27:49.609Z,68.52
2023-05-22T06:30:28.357Z,68.11
2023-05-22T06:33:06.524Z,67.80
2023-05-22T06:35:34.849Z,67.09
2023-05-22T06:38:04.225Z,66.66
2023-05-22T06:40:32.589Z,66.50
2023-05-22T06:43:15.811Z,66.03
2023-05-22T06:45:56.954Z,65.53
2023-05-22T06:48:25.265Z,65.06
2023-05-22T06:51:16.583Z,64.56
2023-05-22T06:53:47.208Z,64.90
2023-05-22T06:56:19.287Z,64.38
2023-05-22T06:58:53.185Z,63.55
2023-05-22T07:01:23.530Z,63.17
2023-05-22T07:04:02.640Z,63.11
2023-05-22T07:06:41.976Z,62.83
2023-05-22T07:09:11.556Z,62.50
2023-05-22T07:11:39.951Z,61.78
2023-05-22T07:14:08.937Z,61.28
2023-05-22T07:16:37.516Z,61.16
2023-05-22T07:19:06.831Z,61.16
2023-05-22T07:21:36.245Z,60.51
2023-05-22T07:24:08.573Z,60.25
2023-05-22T07:26:41.475Z,59.67
2023-05-22T07:29:12.205Z,59.49
2023-05-22T07:31:40.734Z,58.95
2023-05-22T07:34:09.676Z,58.64
2023-05-22T07:36:38.359Z,58.31
2023-05-22T07:39:07.143Z,58.71
2023-05-22T07:41:39.209Z,57.97
2023-05-22T07:44:08.204Z,57.34
2023-05-22T07:46:38.469Z,56.49
2023-05-22T07:49:12.738Z,56.34
2023-05-22T07:51:43.466Z,55.97
2023-05-22T07:54:13.701Z,55.86
2023-05-22T07:56:42.987Z,55.23
2023-05-22T07:59:12.488Z,54.65
2023-05-22T08:01:42.212Z,54.63
2023-05-22T08:04:10.589Z,54.26
2023-05-22T08:06:40.176Z,53.31
2023-05-22T08:09:08.348Z,53.02
2023-05-22T08:11:39.711Z,52.76
2023-05-22T08:14:08.176Z,52.14
2023-05-22T08:16:36.570Z,51.55
2023-05-22T08:19:07.383Z,51.20
2023-05-22T08:21:36.177Z,51.04
2023-05-22T08:24:04.666Z,50.56
2023-05-22T08:26:34.161Z,49.74
2023-05-22T08:29:02.841Z,49.37
2023-05-22T08:31:31.242Z,49.07
2023-05-22T08:34:02.947Z,48.89
2023-05-22T08:36:34.230Z,48.23
2023-05-22T08:39:02.697Z,48.02
2023-05-22T08:41:30.868Z,47.43
2023-05-22T08:43:59.251Z,47.46
2023-05-22T08:46:30.274Z,46.89
2023-05-22T08:48:59.280Z,46.65
2023-05-22T08:51:29.410Z,46.50
2023-05-22T08:53:57.975Z,45.96
2023-05-22T08:56:28.545Z,45.91
2023-05-22T08:58:58.928Z,45.20
2023-05-22T09:01:28.931Z,44.73
2023-05-22T09:04:02.095Z,43.98
2023-05-22T09:06:30.622Z,43.44
2023-05-22T09:09:03.503Z,43.11
2023-05-22T09:11:31.775Z,42.82
2023-05-22T09:14:10.222Z,42.00
2023-05-22T09:16:48.847Z,41.70
2023-05-22T09:19:17.355Z,41.59
2023-05-22T09:21:46.301Z,41.34
2023-05-22T09:24:14.759Z,40.98
2023-05-22T09:26:42.929Z,40.39
2023-05-22T09:29:11.237Z,39.92
2023-05-22T09:31:44.036Z,39.95
2023-05-22T09:34:16.007Z,39.69
2023-05-22T09:36:44.286Z,39.15
2023-05-22T09:39:12.502Z,38.73
2023-05-22T09:41:40.782Z,38.49
2023-05-22T09:44:15.625Z,38.16
2023-05-22T09:46:47.783Z,37.78
2023-05-22T09:49:17.497Z,37.50
2023-05-22T09:51:49.506Z,37.46
2023-05-22T09:54:19.968Z,37.48
2023-05-22T09:56:50.327Z,37.43
2023-05-22T09:59:26.974Z,37.48
2023-05-22T10:01:55.969Z,37.26
2023-05-22T10:04:24.597Z,37.28
2023-05-22T10:06:57.922Z,37.29
2023-05-22T10:09:31.209Z,37.27
2023-05-22T10:12:04.551Z,36.95
2023-05-22T10:14:35.343Z,36.69
2023-05-22T10:17:06.954Z,36.44
2023-05-22T10:19:38.697Z,35.79
2023-05-22T10:22:11.842Z,35.12
2023-05-22T10:24:40.323Z,34.88
2023-05-22T10:27:08.597Z,34.86
2023-05-22T10:29:43.345Z,34.16
2023-05-22T10:32:22.284Z,33.74
2023-05-22T10:34:56.678Z,33.29
2023-05-22T10:37:57.196Z,33.36
2023-05-22T10:40:29.409Z,32.73
2023-05-22T10:43:03.067Z,32.61
2023-05-22T10:45:32.169Z,31.96
2023-05-22T10:48:08.367Z,31.82
2023-05-22T10:50:36.937Z,31.55
2023-05-22T10:53:26.387Z,31.23
2023-05-22T10:55:57.004Z,30.92
2023-05-22T10:58:30.298Z,30.56
2023-05-22T11:01:15.013Z,30.39
2023-05-22T11:04:13.673Z,29.66
2023-05-22T11:07:04.627Z,29.44
2023-05-22T11:09:48.440Z,29.14
2023-05-22T11:12:31.230Z,29.27
2023-05-22T11:15:08.382Z,28.94
2023-05-22T11:17:39.831Z,28.86
2023-05-22T11:20:10.612Z,28.59
2023-05-22T11:22:44.133Z,28.02
2023-05-22T11:25:16.948Z,28.20
2023-05-22T11:27:45.731Z,28.37
2023-05-22T11:30:15.441Z,28.56
2023-05-22T11:32:45.425Z,28.20
2023-05-22T11:35:22.844Z,28.25
2023-05-22T11:37:53.593Z,28.27
2023-05-22T11:40:26.364Z,28.16
2023-05-22T11:42:55.250Z,27.67
2023-05-22T11:45:23.918Z,27.62
2023-05-22T11:47:52.320Z,27.15
2023-05-22T11:50:33.580Z,26.99
2023-05-22T11:53:09.191Z,27.29
2023-05-22T11:55:37.716Z,27.23
2023-05-22T11:58:05.990Z,26.91
2023-05-22T12:00:34.374Z,26.67
2023-05-22T12:03:02.796Z,26.36
2023-05-22T12:05:32.673Z,26.26
2023-05-22T12:08:01.107Z,26.27
2023-05-22T12:10:29.409Z,25.70
2023-05-22T12:12:57.891Z,25.17
2023-05-22T12:15:27.328Z,25.24
2023-05-22T12:17:56.734Z,25.11
2023-05-22T12:20:30.839Z,25.11
2023-05-22T12:23:00.065Z,24.56
2023-05-22T12:25:36.073Z,24.57
2023-05-22T12:28:06.536Z,24.26
2023-05-22T12:30:42.064Z,24.33
2023-05-22T12:33:15.324Z,24.25
2023-05-22T12:35:43.787Z,24.12
2023-05-22T12:38:13.778Z,23.96
2023-05-22T12:40:42.904Z,23.90
2023-05-22T12:43:11.285Z,23.95
2023-05-22T12:45:42.626Z,22.99
2023-05-22T12:48:12.205Z,22.91
2023-05-22T12:50:41.318Z,22.69
2023-05-22T12:53:09.806Z,22.63
2023-05-22T12:55:39.229Z,22.25
2023-05-22T12:58:07.900Z,21.99
2023-05-22T13:00:36.368Z,22.25
2023-05-22T13:03:05.905Z,22.38
2023-05-22T13:05:34.582Z,22.71
2023-05-22T13:08:02.837Z,22.70
2023-05-22T13:10:31.207Z,22.88
2023-05-22T13:12:59.481Z,22.87
2023-05-22T13:15:29.802Z,23.17
2023-05-22T13:17:58.124Z,23.07
2023-05-22T13:20:26.561Z,23.01
2023-05-22T13:22:55.241Z,22.96
2023-05-22T13:25:23.411Z,22.88
2023-05-22T13:27:51.692Z,22.64
2023-05-22T13:30:20.170Z,22.27
2023-05-22T13:32:48.497Z,22.38
2023-05-22T13:35:16.924Z,22.32
2023-05-22T13:37:45.208Z,22.49
2023-05-22T13:40:13.576Z,22.35
2023-05-22T13:42:42.062Z,22.39
2023-05-22T13:45:10.840Z,22.50
2023-05-22T13:47:39.063Z,22.54
2023-05-22T13:50:08.392Z,22.67
2023-05-22T13:52:36.797Z,22.32
2023-05-22T13:55:06.094Z,22.06
2023-05-22T13:57:34.577Z,22.14
2023-05-22T14:00:03.871Z,22.09
2023-05-22T14:02:51.272Z,22.07
2023-05-22T14:05:19.975Z,21.76
2023-05-22T14:07:48.358Z,22.07
2023-05-22T14:10:17.967Z,21.84
2023-05-22T14:12:46.542Z,21.61
2023-05-22T14:15:16.376Z,21.67
2023-05-22T14:17:44.700Z,21.89
2023-05-22T14:20:13.112Z,22.11
2023-05-22T14:22:55.723Z,21.94
2023-05-22T14:25:26.549Z,22.05
2023-05-22T14:27:54.841Z,22.12
2023-05-22T14:30:23.201Z,22.09
2023-05-22T14:32:51.809Z,22.07
2023-05-22T14:35:20.367Z,22.37
2023-05-22T14:37:48.538Z,22.69
2023-05-22T14:40:17.014Z,22.87
2023-05-22T14:42:45.953Z,22.95
2023-05-22T14:45:14.193Z,22.94
2023-05-22T14:47:43.526Z,22.90
2023-05-22T14:50:19.238Z,23.00
2023-05-22T14:52:51.517Z,23.07
2023-05-22T14:55:21.315Z,22.62
2023-05-22T14:57:49.801Z,22.67
2023-05-22T15:00:18.583Z,22.47
2023-05-22T15:02:46.954Z,22.58
2023-05-22T15:05:15.912Z,22.50
2023-05-22T15:07:46.103Z,22.74
2023-05-22T15:10:15.776Z,22.92
2023-05-22T15:12:44.154Z,22.94
2023-05-22T15:15:12.435Z,23.30
2023-05-22T15:17:42.624Z,23.33
2023-05-22T15:20:11.787Z,23.47
2023-05-22T15:22:40.629Z,23.48
2023-05-22T15:25:12.198Z,23.52
2023-05-22T15:27:41.375Z,24.05
2023-05-22T15:30:10.176Z,24.40
2023-05-22T15:32:39.190Z,24.63
2023-05-22T15:35:09.194Z,24.69
2023-05-22T15:37:37.447Z,24.84
2023-05-22T15:40:06.434Z,25.03
2023-05-22T15:42:34.615Z,25.02
2023-05-22T15:45:02.982Z,25.32
2023-05-22T15:47:31.397Z,25.61
2023-05-22T15:50:00.272Z,25.87
2023-05-22T15:52:28.534Z,26.27
2023-05-22T15:54:57.338Z,26.55
2023-05-22T15:57:28.607Z,26.62
2023-05-22T15:59:57.036Z,26.63
2023-05-22T16:02:25.828Z,26.87
2023-05-22T16:04:54.314Z,27.33
2023-05-22T16:07:22.680Z,27.59
2023-05-22T16:09:50.955Z,27.72
2023-05-22T16:12:19.360Z,28.09
2023-05-22T16:14:47.961Z,27.94
2023-05-22T16:17:16.289Z,28.25
2023-05-22T16:19:44.567Z,28.41
2023-05-22T16:22:12.838Z,28.60
2023-05-22T16:24:41.318Z,28.76
2023-05-22T16:27:09.707Z,29.01
2023-05-22T16:29:38.074Z,29.25
2023-05-22T16:32:06.498Z,29.14
2023-05-22T16:34:35.133Z,29.61
2023-05-22T16:37:03.513Z,29.77
2023-05-22T16:39:31.788Z,30.14
2023-05-22T16:42:01.305Z,30.30
2023-05-22T16:44:29.461Z,30.65
2023-05-22T16:46:57.749Z,30.98
2023-05-22T16:49:26.018Z,31.06
2023-05-22T16:51:54.388Z,31.09
2023-05-22T16:54:22.561Z,31.35
2023-05-22T16:56:51.045Z,31.59
2023-05-22T16:59:19.954Z,31.59
2023-05-22T17:01:48.310Z,31.76
2023-05-22T17:04:18.735Z,31.95
2023-05-22T17:06:48.133Z,32.14
2023-05-22T17:09:16.306Z,32.09
2023-05-22T17:11:44.478Z,32.12
2023-05-22T17:14:13.166Z,32.33
2023-05-22T17:16:41.386Z,32.31
2023-05-22T17:19:10.054Z,32.47
2023-05-22T17:21:38.495Z,32.61
2023-05-22T17:24:12.644Z,32.86
2023-05-22T17:26:43.024Z,33.05
2023-05-22T17:29:11.410Z,33.20
2023-05-22T17:31:39.855Z,33.43
2023-05-22T17:34:08.263Z,33.64
2023-05-22T17:36:36.549Z,33.75
2023-05-22T17:39:04.925Z,33.87
2023-05-22T17:41:33.398Z,34.14
2023-05-22T17:44:01.978Z,34.33
2023-05-22T17:46:30.276Z,34.37
2023-05-22T17:48:58.631Z,34.59
2023-05-22T17:51:26.933Z,34.85
2023-05-22T17:53:56.615Z,35.07
2023-05-22T17:56:26.651Z,35.24
2023-05-22T17:58:54.914Z,35.35
2023-05-22T18:01:24.822Z,35.46
2023-05-22T18:03:53.356Z,35.59
2023-05-22T18:06:23.953Z,35.90
2023-05-22T18:08:52.721Z,36.03
2023-05-22T18:11:21.396Z,36.30
2023-05-22T18:13:50.388Z,36.57
2023-05-22T18:16:21.477Z,36.78
2023-05-22T18:18:49.941Z,37.21
2023-05-22T18:21:18.182Z,37.47
2023-05-22T18:23:46.367Z,37.87
2023-05-22T18:26:14.532Z,38.12
2023-05-22T18:28:42.694Z,38.48
2023-05-22T18:31:10.893Z,38.87
2023-05-22T18:33:39.662Z,39.61
2023-05-22T18:36:08.140Z,40.05
2023-05-22T18:38:36.520Z,40.48
2023-05-22T18:41:06.338Z,41.07
2023-05-22T18:43:34.613Z,41.70
2023-05-22T18:46:02.885Z,42.18
2023-05-22T18:48:31.260Z,42.55
2023-05-22T18:51:00.975Z,43.22
2023-05-22T18:53:29.232Z,43.80
2023-05-22T18:55:57.417Z,44.06
2023-05-22T18:58:25.885Z,44.46
2023-05-22T19:00:55.969Z,44.78
2023-05-22T19:03:24.589Z,45.27
2023-05-22T19:05:52.860Z,45.59
2023-05-22T19:08:21.234Z,45.90
2023-05-22T19:10:49.411Z,46.29
2023-05-22T19:13:17.794Z,46.67
2023-05-22T19:15:46.711Z,46.98
2023-05-22T19:18:14.968Z,47.36
2023-05-22T19:20:43.126Z,47.46
2023-05-22T19:23:12.528Z,48.01
2023-05-22T19:25:40.900Z,48.30
2023-05-22T19:28:09.089Z,48.40
2023-05-22T19:30:37.529Z,48.89
2023-05-22T19:33:08.561Z,49.30
2023-05-22T19:35:38.001Z,49.54
2023-05-22T19:38:06.577Z,50.04
2023-05-22T19:40:34.864Z,50.54
2023-05-22T19:43:03.331Z,51.05
2023-05-22T19:45:31.713Z,51.47
2023-05-22T19:48:00.367Z,52.02
2023-05-22T19:50:28.875Z,52.58
2023-05-22T19:52:57.249Z,53.05
2023-05-22T19:55:25.934Z,53.47
2023-05-22T19:57:54.208Z,54.12
2023-05-22T20:00:22.996Z,54.64
2023-05-22T20:02:51.460Z,55.16
2023-05-22T20:05:20.081Z,55.31
2023-05-22T20:07:48.887Z,55.56
2023-05-22T20:10:17.425Z,55.84
2023-05-22T20:12:46.212Z,56.13
2023-05-22T20:15:15.398Z,56.51
2023-05-22T20:17:48.027Z,56.68
2023-05-22T20:20:16.466Z,56.90
2023-05-22T20:22:45.158Z,57.28
2023-05-22T20:25:13.935Z,57.46
2023-05-22T20:27:42.219Z,57.72
2023-05-22T20:30:12.753Z,58.01
2023-05-22T20:32:42.846Z,58.25
2023-05-22T20:35:13.891Z,58.60
2023-05-22T20:37:42.182Z,58.88
2023-05-22T20:40:11.040Z,59.17
2023-05-22T20:42:41.094Z,59.36
2023-05-22T20:45:14.628Z,59.63
2023-05-22T20:47:44.175Z,60.02
2023-05-22T20:50:12.684Z,60.05
2023-05-22T20:52:41.030Z,60.26
2023-05-22T20:55:09.819Z,60.58
2023-05-22T20:57:38.098Z,60.61
2023-05-22T21:00:11.262Z,60.83
2023-05-22T21:02:39.595Z,61.00
2023-05-22T21:05:08.776Z,61.23
2023-05-22T21:07:37.232Z,61.45
2023-05-22T21:10:06.223Z,61.51
2023-05-22T21:12:34.500Z,61.60
2023-05-22T21:15:02.775Z,61.94
2023-05-22T21:17:30.968Z,62.16
2023-05-22T21:19:59.118Z,62.44
2023-05-22T21:22:27.287Z,62.79
2023-05-22T21:24:55.985Z,62.84
2023-05-22T21:27:24.257Z,62.97
2023-05-22T21:29:52.450Z,63.36
2023-05-22T21:32:20.704Z,63.41
2023-05-22T21:34:48.876Z,63.72
2023-05-22T21:37:17.146Z,63.91
2023-05-22T21:39:45.418Z,64.31
2023-05-22T21:44:44.136Z,65.18
2023-05-22T21:47:12.710Z,65.45
2023-05-22T21:49:41.487Z,65.78
2023-05-22T21:52:09.760Z,65.77
2023-05-22T21:54:38.141Z,66.02
2023-05-22T21:57:06.618Z,66.05
2023-05-22T21:59:34.854Z,66.16
2023-05-22T22:02:03.322Z,66.60
2023-05-22T22:04:31.546Z,66.99
2023-05-22T22:06:59.919Z,67.22
2023-05-22T22:09:28.190Z,67.42
2023-05-22T22:11:56.693Z,67.73
2023-05-22T22:14:25.050Z,67.88
2023-05-22T22:16:54.686Z,67.81
2023-05-22T22:19:23.768Z,68.02
2023-05-22T22:21:52.432Z,68.11
2023-05-22T22:24:20.810Z,68.51
2023-05-22T22:26:49.593Z,68.77
2023-05-22T22:29:17.876Z,69.14
2023-05-22T22:31:46.505Z,69.30
2023-05-22T22:34:15.037Z,69.23
2023-05-22T22:36:43.527Z,69.26
2023-05-22T22:39:11.997Z,69.32
2023-05-22T22:41:40.274Z,69.35
2023-05-22T22:44:08.453Z,69.61
2023-05-22T22:46:36.969Z,69.90
2023-05-22T22:49:05.301Z,70.17
2023-05-22T22:51:34.843Z,70.21
2023-05-22T22:54:03.710Z,70.45
2023-05-22T22:56:32.277Z,71.00
2023-05-22T22:59:00.667Z,70.98
2023-05-22T23:01:29.100Z,71.29
2023-05-22T23:03:57.572Z,71.34
2023-05-22T23:06:29.786Z,71.34
2023-05-22T23:08:59.078Z,71.47
2023-05-22T23:11:28.377Z,71.58
2023-05-22T23:13:56.853Z,71.61
2023-05-22T23:16:26.080Z,71.96
2023-05-22T23:18:54.481Z,72.08
2023-05-22T23:21:22.798Z,72.34
2023-05-22T23:23:51.003Z,72.62
2023-05-22T23:26:19.146Z,72.68
2023-05-22T23:28:47.427Z,72.83
2023-05-22T23:31:16.451Z,73.10
2023-05-22T23:33:44.791Z,73.30
2023-05-22T23:36:12.860Z,73.45
2023-05-22T23:38:41.032Z,73.45
2023-05-22T23:41:09.216Z,73.60
2023-05-22T23:43:37.284Z,73.56
2023-05-22T23:46:05.445Z,73.60
2023-05-22T23:48:33.519Z,73.67
2023-05-22T23:51:02.924Z,73.80
2023-05-22T23:53:30.984Z,73.96
2023-05-22T23:55:59.157Z,74.18
2023-05-22T23:58:29.688Z,74.20
